This is the latest recevied weather packets stored in our database for station/object K0NV. If no packets are shown the sender has not sent any weather packets the latest 10 day(s).
| Time | Temp. | Humidity | Pressure | Rain* | Wind** | Luminosity | Snow |
|---|---|---|---|---|---|---|---|
| 1777933635 | 25.56° C | 53% | 1006.3 hPa | 0 mm | - | 353 W/m² | - |
| 1777933332 | 25.56° C | 53% | 1006.4 hPa | 0 mm | - | 301 W/m² | - |
| 1777933029 | 25.56° C | 52% | 1006.3 hPa | 0 mm | - | 363 W/m² | - |
| 1777932726 | 26.67° C | 51% | 1006.4 hPa | 0 mm | - | 407 W/m² | - |
| 1777932423 | 26.11° C | 53% | 1006.4 hPa | 0 mm | - | 403 W/m² | - |
| 1777932120 | 25.56° C | 53% | 1006.3 hPa | 0 mm | - | 426 W/m² | - |
| 1777931816 | 25.56° C | 53% | 1006.5 hPa | 0 mm | - | 457 W/m² | - |
| 1777931514 | 25.56° C | 53% | 1006.2 hPa | 0 mm | - | 481 W/m² | - |
| 1777931209 | 25.56° C | 54% | 1006.5 hPa | 0 mm | - | 489 W/m² | - |
| 1777930906 | 26.11° C | 52% | 1006.3 hPa | 0 mm | - | 501 W/m² | - |
| 1777930603 | 26.11° C | 52% | 1006.4 hPa | 0 mm | - | 540 W/m² | - |
| 1777930299 | 25.56° C | 53% | 1006.4 hPa | 0 mm | - | 485 W/m² | - |
| 1777929996 | 25.56° C | 52% | 1006.6 hPa | 0 mm | - | 535 W/m² | - |
| 1777929693 | 25.56° C | 52% | 1006.6 hPa | 0 mm | - | 594 W/m² | - |
| 1777929390 | 25° C | 55% | 1006.6 hPa | 0 mm | - | 583 W/m² | - |
| 1777929086 | 25.56° C | 54% | 1006.7 hPa | 0 mm | - | 370 W/m² | - |
| 1777928785 | 26.11° C | 53% | 1006.5 hPa | 0 mm | - | 511 W/m² | - |
| 1777928480 | 25.56° C | 52% | 1007 hPa | 0 mm | - | 580 W/m² | - |
| 1777928178 | 25° C | 53% | 1007 hPa | 0 mm | - | 412 W/m² | - |
| 1777927876 | 25.56° C | 53% | 1007.2 hPa | 0 mm | - | 509 W/m² | - |
| 1777927574 | 25.56° C | 54% | 1007.2 hPa | 0 mm | - | 525 W/m² | - |
| 1777927273 | 25.56° C | 53% | 1007.1 hPa | 0 mm | - | 383 W/m² | - |
| 1777926971 | 25.56° C | 53% | 1007.5 hPa | 0 mm | - | 648 W/m² | - |
| 1777926668 | 25.56° C | 54% | 1007.3 hPa | 0 mm | - | 617 W/m² | - |
| 1777926363 | 25.56° C | 53% | 1007.5 hPa | 0 mm | - | 588 W/m² | - |
* Rain latest hour (hover to see other rain measurements)
** Current wind speed in m/s (hover to see current wind gust speed)